sensor_id;sensor_type;location;lat;lon;timestamp;P1;durP1;ratioP1;P2;durP2;ratioP2
12155;SDS011;6141;49.092;8.516;2023-04-25T00:00:04;3.43;;;3.13;;
12155;SDS011;6141;49.092;8.516;2023-04-25T00:02:37;3.53;;;2.80;;
12155;SDS011;6141;49.092;8.516;2023-04-25T00:05:07;3.13;;;2.87;;
12155;SDS011;6141;49.092;8.516;2023-04-25T00:07:36;3.10;;;2.80;;
12155;SDS011;6141;49.092;8.516;2023-04-25T00:10:06;6.53;;;3.27;;
12155;SDS011;6141;49.092;8.516;2023-04-25T00:12:36;3.23;;;2.93;;
12155;SDS011;6141;49.092;8.516;2023-04-25T00:15:06;3.37;;;3.07;;
12155;SDS011;6141;49.092;8.516;2023-04-25T00:17:34;3.40;;;3.10;;
12155;SDS011;6141;49.092;8.516;2023-04-25T00:20:05;3.67;;;3.10;;
12155;SDS011;6141;49.092;8.516;2023-04-25T00:22:38;3.37;;;3.00;;
12155;SDS011;6141;49.092;8.516;2023-04-25T00:25:07;3.63;;;3.33;;
12155;SDS011;6141;49.092;8.516;2023-04-25T00:27:36;4.70;;;3.03;;
12155;SDS011;6141;49.092;8.516;2023-04-25T00:30:06;3.47;;;3.17;;
12155;SDS011;6141;49.092;8.516;2023-04-25T00:32:35;3.60;;;3.10;;
12155;SDS011;6141;49.092;8.516;2023-04-25T00:35:04;3.13;;;2.83;;
12155;SDS011;6141;49.092;8.516;2023-04-25T00:37:34;3.40;;;3.10;;
12155;SDS011;6141;49.092;8.516;2023-04-25T00:40:04;3.40;;;3.10;;
12155;SDS011;6141;49.092;8.516;2023-04-25T00:42:35;3.67;;;3.37;;
12155;SDS011;6141;49.092;8.516;2023-04-25T00:45:05;3.50;;;3.20;;
12155;SDS011;6141;49.092;8.516;2023-04-25T00:47:35;4.43;;;3.50;;
12155;SDS011;6141;49.092;8.516;2023-04-25T00:50:05;3.70;;;3.40;;
12155;SDS011;6141;49.092;8.516;2023-04-25T00:52:37;3.67;;;3.37;;
12155;SDS011;6141;49.092;8.516;2023-04-25T00:55:06;4.53;;;3.50;;
12155;SDS011;6141;49.092;8.516;2023-04-25T00:57:35;4.90;;;3.57;;
12155;SDS011;6141;49.092;8.516;2023-04-25T01:00:06;4.27;;;3.87;;
12155;SDS011;6141;49.092;8.516;2023-04-25T01:02:38;4.13;;;3.73;;
12155;SDS011;6141;49.092;8.516;2023-04-25T01:05:08;4.30;;;3.90;;
12155;SDS011;6141;49.092;8.516;2023-04-25T01:07:40;4.03;;;3.70;;
12155;SDS011;6141;49.092;8.516;2023-04-25T01:10:09;4.20;;;3.80;;
12155;SDS011;6141;49.092;8.516;2023-04-25T01:12:38;4.33;;;3.93;;
12155;SDS011;6141;49.092;8.516;2023-04-25T01:15:07;4.80;;;4.40;;
12155;SDS011;6141;49.092;8.516;2023-04-25T01:17:36;5.43;;;4.17;;
12155;SDS011;6141;49.092;8.516;2023-04-25T01:20:06;4.63;;;4.23;;
12155;SDS011;6141;49.092;8.516;2023-04-25T01:22:37;5.23;;;4.00;;
12155;SDS011;6141;49.092;8.516;2023-04-25T01:25:07;4.50;;;4.03;;
12155;SDS011;6141;49.092;8.516;2023-04-25T01:27:36;4.20;;;3.80;;
12155;SDS011;6141;49.092;8.516;2023-04-25T01:30:06;3.63;;;3.33;;
12155;SDS011;6141;49.092;8.516;2023-04-25T01:32:36;4.03;;;3.63;;
12155;SDS011;6141;49.092;8.516;2023-04-25T01:35:06;6.03;;;4.20;;
12155;SDS011;6141;49.092;8.516;2023-04-25T01:37:39;4.77;;;3.90;;
12155;SDS011;6141;49.092;8.516;2023-04-25T01:40:11;3.97;;;3.57;;
12155;SDS011;6141;49.092;8.516;2023-04-25T01:42:43;5.13;;;3.67;;
12155;SDS011;6141;49.092;8.516;2023-04-25T01:45:12;4.03;;;3.57;;
12155;SDS011;6141;49.092;8.516;2023-04-25T01:47:41;4.27;;;3.87;;
12155;SDS011;6141;49.092;8.516;2023-04-25T01:50:10;4.20;;;3.83;;
12155;SDS011;6141;49.092;8.516;2023-04-25T01:52:41;4.67;;;3.60;;
12155;SDS011;6141;49.092;8.516;2023-04-25T01:55:11;4.43;;;4.03;;
12155;SDS011;6141;49.092;8.516;2023-04-25T01:57:49;4.63;;;4.23;;
12155;SDS011;6141;49.092;8.516;2023-04-25T02:00:24;4.80;;;4.30;;
12155;SDS011;6141;49.092;8.516;2023-04-25T02:02:52;4.57;;;4.17;;
12155;SDS011;6141;49.092;8.516;2023-04-25T02:05:26;4.77;;;4.37;;
12155;SDS011;6141;49.092;8.516;2023-04-25T02:07:57;4.27;;;3.97;;
12155;SDS011;6141;49.092;8.516;2023-04-25T02:10:26;4.17;;;3.87;;
12155;SDS011;6141;49.092;8.516;2023-04-25T02:13:06;4.17;;;3.80;;
12155;SDS011;6141;49.092;8.516;2023-04-25T02:15:59;4.57;;;4.17;;
12155;SDS011;6141;49.092;8.516;2023-04-25T02:18:29;4.90;;;4.50;;
12155;SDS011;6141;49.092;8.516;2023-04-25T02:21:02;4.00;;;3.70;;
12155;SDS011;6141;49.092;8.516;2023-04-25T02:23:34;4.83;;;4.43;;
12155;SDS011;6141;49.092;8.516;2023-04-25T02:26:03;4.57;;;3.90;;
12155;SDS011;6141;49.092;8.516;2023-04-25T02:28:33;4.20;;;3.87;;
12155;SDS011;6141;49.092;8.516;2023-04-25T02:31:03;4.93;;;4.53;;
12155;SDS011;6141;49.092;8.516;2023-04-25T02:33:32;4.90;;;4.50;;
12155;SDS011;6141;49.092;8.516;2023-04-25T02:36:01;4.53;;;4.20;;
12155;SDS011;6141;49.092;8.516;2023-04-25T02:38:31;4.77;;;4.27;;
12155;SDS011;6141;49.092;8.516;2023-04-25T02:41:00;5.67;;;4.30;;
12155;SDS011;6141;49.092;8.516;2023-04-25T02:43:29;5.57;;;4.50;;
12155;SDS011;6141;49.092;8.516;2023-04-25T02:45:59;4.70;;;4.30;;
12155;SDS011;6141;49.092;8.516;2023-04-25T02:48:27;4.87;;;4.30;;
12155;SDS011;6141;49.092;8.516;2023-04-25T02:50:56;4.63;;;4.23;;
12155;SDS011;6141;49.092;8.516;2023-04-25T02:53:24;4.87;;;4.47;;
12155;SDS011;6141;49.092;8.516;2023-04-25T02:55:53;4.97;;;4.40;;
12155;SDS011;6141;49.092;8.516;2023-04-25T02:58:26;5.27;;;4.77;;
12155;SDS011;6141;49.092;8.516;2023-04-25T03:00:55;5.10;;;4.60;;
12155;SDS011;6141;49.092;8.516;2023-04-25T03:03:27;5.57;;;4.40;;
12155;SDS011;6141;49.092;8.516;2023-04-25T03:05:55;5.13;;;4.73;;
12155;SDS011;6141;49.092;8.516;2023-04-25T03:08:30;4.90;;;4.50;;
12155;SDS011;6141;49.092;8.516;2023-04-25T03:11:01;6.57;;;5.10;;
12155;SDS011;6141;49.092;8.516;2023-04-25T03:13:31;5.13;;;4.63;;
12155;SDS011;6141;49.092;8.516;2023-04-25T03:16:00;5.07;;;4.43;;
12155;SDS011;6141;49.092;8.516;2023-04-25T03:18:29;5.20;;;4.73;;
12155;SDS011;6141;49.092;8.516;2023-04-25T03:20:57;5.17;;;4.70;;
12155;SDS011;6141;49.092;8.516;2023-04-25T03:23:26;5.50;;;4.67;;
12155;SDS011;6141;49.092;8.516;2023-04-25T03:25:54;5.77;;;4.93;;
12155;SDS011;6141;49.092;8.516;2023-04-25T03:28:23;5.47;;;4.97;;
12155;SDS011;6141;49.092;8.516;2023-04-25T03:30:56;5.43;;;4.77;;
12155;SDS011;6141;49.092;8.516;2023-04-25T03:33:24;5.40;;;4.90;;
12155;SDS011;6141;49.092;8.516;2023-04-25T03:35:53;5.80;;;5.20;;
12155;SDS011;6141;49.092;8.516;2023-04-25T03:38:21;5.53;;;5.03;;
12155;SDS011;6141;49.092;8.516;2023-04-25T03:40:52;4.87;;;4.47;;
12155;SDS011;6141;49.092;8.516;2023-04-25T03:43:41;5.33;;;4.90;;
12155;SDS011;6141;49.092;8.516;2023-04-25T03:46:13;5.30;;;4.40;;
12155;SDS011;6141;49.092;8.516;2023-04-25T03:48:42;4.73;;;4.33;;
12155;SDS011;6141;49.092;8.516;2023-04-25T03:51:16;5.57;;;5.07;;
12155;SDS011;6141;49.092;8.516;2023-04-25T03:53:45;5.67;;;5.17;;
12155;SDS011;6141;49.092;8.516;2023-04-25T03:56:32;5.53;;;5.03;;
12155;SDS011;6141;49.092;8.516;2023-04-25T03:59:11;5.83;;;4.57;;
12155;SDS011;6141;49.092;8.516;2023-04-25T04:01:41;5.30;;;4.90;;
12155;SDS011;6141;49.092;8.516;2023-04-25T04:04:09;5.23;;;4.83;;
12155;SDS011;6141;49.092;8.516;2023-04-25T04:06:39;5.83;;;4.83;;
12155;SDS011;6141;49.092;8.516;2023-04-25T04:09:12;5.23;;;4.83;;
12155;SDS011;6141;49.092;8.516;2023-04-25T04:11:43;7.03;;;5.37;;
12155;SDS011;6141;49.092;8.516;2023-04-25T04:14:12;6.33;;;5.83;;
12155;SDS011;6141;49.092;8.516;2023-04-25T04:16:45;6.20;;;5.30;;
12155;SDS011;6141;49.092;8.516;2023-04-25T04:19:14;5.40;;;4.90;;
12155;SDS011;6141;49.092;8.516;2023-04-25T04:21:57;5.90;;;5.40;;
12155;SDS011;6141;49.092;8.516;2023-04-25T04:24:27;6.40;;;5.30;;
12155;SDS011;6141;49.092;8.516;2023-04-25T04:27:01;6.13;;;5.47;;
12155;SDS011;6141;49.092;8.516;2023-04-25T04:29:50;5.80;;;5.30;;
12155;SDS011;6141;49.092;8.516;2023-04-25T04:32:31;5.80;;;5.30;;
12155;SDS011;6141;49.092;8.516;2023-04-25T04:35:03;5.90;;;5.40;;
12155;SDS011;6141;49.092;8.516;2023-04-25T04:37:33;5.63;;;5.13;;
12155;SDS011;6141;49.092;8.516;2023-04-25T04:40:06;5.90;;;5.30;;
12155;SDS011;6141;49.092;8.516;2023-04-25T04:43:01;6.37;;;5.17;;
12155;SDS011;6141;49.092;8.516;2023-04-25T04:45:30;5.37;;;4.97;;
12155;SDS011;6141;49.092;8.516;2023-04-25T04:48:09;5.07;;;4.63;;
12155;SDS011;6141;49.092;8.516;2023-04-25T04:50:58;5.67;;;5.17;;
12155;SDS011;6141;49.092;8.516;2023-04-25T04:53:52;6.20;;;5.70;;
12155;SDS011;6141;49.092;8.516;2023-04-25T04:56:40;6.60;;;6.00;;
12155;SDS011;6141;49.092;8.516;2023-04-25T04:59:24;5.83;;;5.33;;
12155;SDS011;6141;49.092;8.516;2023-04-25T05:02:19;5.37;;;4.87;;
12155;SDS011;6141;49.092;8.516;2023-04-25T05:04:52;6.40;;;5.43;;
12155;SDS011;6141;49.092;8.516;2023-04-25T05:07:50;6.37;;;5.13;;
12155;SDS011;6141;49.092;8.516;2023-04-25T05:10:42;7.87;;;6.60;;
12155;SDS011;6141;49.092;8.516;2023-04-25T05:13:32;6.87;;;6.17;;
12155;SDS011;6141;49.092;8.516;2023-04-25T05:16:11;7.00;;;6.30;;
12155;SDS011;6141;49.092;8.516;2023-04-25T05:19:05;5.47;;;4.97;;
12155;SDS011;6141;49.092;8.516;2023-04-25T05:21:51;5.80;;;5.30;;
12155;SDS011;6141;49.092;8.516;2023-04-25T05:24:58;5.57;;;5.07;;
12155;SDS011;6141;49.092;8.516;2023-04-25T05:27:48;6.07;;;5.43;;
12155;SDS011;6141;49.092;8.516;2023-04-25T05:30:36;5.67;;;5.17;;
12155;SDS011;6141;49.092;8.516;2023-04-25T05:33:17;5.73;;;5.17;;
12155;SDS011;6141;49.092;8.516;2023-04-25T05:35:45;6.13;;;5.53;;
12155;SDS011;6141;49.092;8.516;2023-04-25T05:38:16;5.80;;;5.30;;
12155;SDS011;6141;49.092;8.516;2023-04-25T05:41:05;5.80;;;5.30;;
12155;SDS011;6141;49.092;8.516;2023-04-25T05:43:40;5.30;;;4.80;;
12155;SDS011;6141;49.092;8.516;2023-04-25T05:46:52;5.80;;;5.30;;
12155;SDS011;6141;49.092;8.516;2023-04-25T05:49:30;5.90;;;5.30;;
12155;SDS011;6141;49.092;8.516;2023-04-25T05:52:13;5.53;;;4.87;;
12155;SDS011;6141;49.092;8.516;2023-04-25T05:55:16;6.03;;;5.10;;
12155;SDS011;6141;49.092;8.516;2023-04-25T05:57:45;6.07;;;5.37;;
12155;SDS011;6141;49.092;8.516;2023-04-25T06:00:17;5.27;;;4.77;;
12155;SDS011;6141;49.092;8.516;2023-04-25T06:02:48;5.40;;;4.90;;
12155;SDS011;6141;49.092;8.516;2023-04-25T06:05:17;5.17;;;4.67;;
12155;SDS011;6141;49.092;8.516;2023-04-25T06:07:47;5.20;;;4.70;;
12155;SDS011;6141;49.092;8.516;2023-04-25T06:10:18;5.43;;;4.70;;
12155;SDS011;6141;49.092;8.516;2023-04-25T06:12:46;6.33;;;5.70;;
12155;SDS011;6141;49.092;8.516;2023-04-25T06:15:16;5.67;;;5.23;;
12155;SDS011;6141;49.092;8.516;2023-04-25T06:17:48;6.10;;;5.47;;
12155;SDS011;6141;49.092;8.516;2023-04-25T06:20:16;6.90;;;6.17;;
12155;SDS011;6141;49.092;8.516;2023-04-25T06:22:50;6.03;;;5.37;;
12155;SDS011;6141;49.092;8.516;2023-04-25T06:25:23;6.83;;;6.13;;
12155;SDS011;6141;49.092;8.516;2023-04-25T06:27:53;6.17;;;5.57;;
12155;SDS011;6141;49.092;8.516;2023-04-25T06:30:22;6.20;;;5.33;;
12155;SDS011;6141;49.092;8.516;2023-04-25T06:32:57;5.83;;;5.33;;
12155;SDS011;6141;49.092;8.516;2023-04-25T06:35:29;6.77;;;5.70;;
12155;SDS011;6141;49.092;8.516;2023-04-25T06:37:59;6.93;;;5.63;;
12155;SDS011;6141;49.092;8.516;2023-04-25T06:40:30;6.57;;;5.97;;
12155;SDS011;6141;49.092;8.516;2023-04-25T06:42:59;7.53;;;6.40;;
12155;SDS011;6141;49.092;8.516;2023-04-25T06:45:57;6.90;;;6.20;;
12155;SDS011;6141;49.092;8.516;2023-04-25T06:48:29;7.17;;;6.47;;
12155;SDS011;6141;49.092;8.516;2023-04-25T06:50:58;6.97;;;6.37;;
12155;SDS011;6141;49.092;8.516;2023-04-25T06:53:27;6.83;;;6.13;;
12155;SDS011;6141;49.092;8.516;2023-04-25T06:56:01;7.17;;;5.70;;
12155;SDS011;6141;49.092;8.516;2023-04-25T06:58:50;8.20;;;6.30;;
12155;SDS011;6141;49.092;8.516;2023-04-25T07:01:30;5.93;;;5.43;;
12155;SDS011;6141;49.092;8.516;2023-04-25T07:04:03;6.37;;;5.77;;
12155;SDS011;6141;49.092;8.516;2023-04-25T07:06:36;6.60;;;6.00;;
12155;SDS011;6141;49.092;8.516;2023-04-25T07:09:10;6.87;;;6.20;;
12155;SDS011;6141;49.092;8.516;2023-04-25T07:11:43;7.87;;;6.00;;
12155;SDS011;6141;49.092;8.516;2023-04-25T07:14:12;6.67;;;6.07;;
12155;SDS011;6141;49.092;8.516;2023-04-25T07:16:41;5.97;;;5.47;;
12155;SDS011;6141;49.092;8.516;2023-04-25T07:19:11;6.40;;;5.80;;
12155;SDS011;6141;49.092;8.516;2023-04-25T07:21:39;6.77;;;6.17;;
12155;SDS011;6141;49.092;8.516;2023-04-25T07:24:10;7.23;;;6.47;;
12155;SDS011;6141;49.092;8.516;2023-04-25T07:26:44;6.50;;;6.00;;
12155;SDS011;6141;49.092;8.516;2023-04-25T07:29:34;6.87;;;6.27;;
12155;SDS011;6141;49.092;8.516;2023-04-25T07:32:04;7.17;;;6.50;;
12155;SDS011;6141;49.092;8.516;2023-04-25T07:34:34;6.40;;;5.80;;
12155;SDS011;6141;49.092;8.516;2023-04-25T07:37:04;6.33;;;5.83;;
12155;SDS011;6141;49.092;8.516;2023-04-25T07:39:43;6.90;;;6.20;;
12155;SDS011;6141;49.092;8.516;2023-04-25T07:42:14;6.00;;;5.40;;
12155;SDS011;6141;49.092;8.516;2023-04-25T07:44:44;8.00;;;6.43;;
12155;SDS011;6141;49.092;8.516;2023-04-25T07:47:14;6.57;;;5.93;;
12155;SDS011;6141;49.092;8.516;2023-04-25T07:49:43;6.00;;;5.50;;
12155;SDS011;6141;49.092;8.516;2023-04-25T07:52:14;7.47;;;6.23;;
12155;SDS011;6141;49.092;8.516;2023-04-25T07:54:49;7.13;;;6.43;;
12155;SDS011;6141;49.092;8.516;2023-04-25T07:57:26;7.90;;;7.10;;
12155;SDS011;6141;49.092;8.516;2023-04-25T07:59:56;7.27;;;6.53;;
12155;SDS011;6141;49.092;8.516;2023-04-25T08:02:25;7.03;;;6.43;;
12155;SDS011;6141;49.092;8.516;2023-04-25T08:04:55;7.23;;;6.53;;
12155;SDS011;6141;49.092;8.516;2023-04-25T08:07:24;6.70;;;6.10;;
12155;SDS011;6141;49.092;8.516;2023-04-25T08:09:56;6.83;;;6.23;;
12155;SDS011;6141;49.092;8.516;2023-04-25T08:12:31;7.63;;;6.60;;
12155;SDS011;6141;49.092;8.516;2023-04-25T08:15:00;6.83;;;6.23;;
12155;SDS011;6141;49.092;8.516;2023-04-25T08:17:34;7.87;;;7.10;;
12155;SDS011;6141;49.092;8.516;2023-04-25T08:20:04;7.40;;;6.80;;
12155;SDS011;6141;49.092;8.516;2023-04-25T08:22:34;8.60;;;7.77;;
12155;SDS011;6141;49.092;8.516;2023-04-25T08:25:25;8.20;;;7.10;;
12155;SDS011;6141;49.092;8.516;2023-04-25T08:27:57;8.20;;;7.50;;
12155;SDS011;6141;49.092;8.516;2023-04-25T08:30:30;8.80;;;7.90;;
12155;SDS011;6141;49.092;8.516;2023-04-25T08:32:59;7.67;;;6.97;;
12155;SDS011;6141;49.092;8.516;2023-04-25T08:35:46;9.20;;;8.30;;
12155;SDS011;6141;49.092;8.516;2023-04-25T08:38:15;8.70;;;7.90;;
12155;SDS011;6141;49.092;8.516;2023-04-25T08:40:45;8.90;;;8.00;;
12155;SDS011;6141;49.092;8.516;2023-04-25T08:43:20;7.73;;;7.03;;
12155;SDS011;6141;49.092;8.516;2023-04-25T08:45:51;8.60;;;7.77;;
12155;SDS011;6141;49.092;8.516;2023-04-25T08:48:48;8.93;;;8.17;;
12155;SDS011;6141;49.092;8.516;2023-04-25T08:51:21;10.07;;;9.07;;
12155;SDS011;6141;49.092;8.516;2023-04-25T08:53:52;12.17;;;9.80;;
12155;SDS011;6141;49.092;8.516;2023-04-25T08:56:26;11.97;;;10.07;;
12155;SDS011;6141;49.092;8.516;2023-04-25T08:58:59;13.43;;;10.67;;
12155;SDS011;6141;49.092;8.516;2023-04-25T09:01:28;12.40;;;11.07;;
12155;SDS011;6141;49.092;8.516;2023-04-25T09:03:57;11.10;;;9.93;;
12155;SDS011;6141;49.092;8.516;2023-04-25T09:06:26;11.70;;;10.57;;
12155;SDS011;6141;49.092;8.516;2023-04-25T09:09:01;12.33;;;11.10;;
12155;SDS011;6141;49.092;8.516;2023-04-25T09:11:32;12.53;;;11.33;;
12155;SDS011;6141;49.092;8.516;2023-04-25T09:14:12;12.93;;;11.17;;
12155;SDS011;6141;49.092;8.516;2023-04-25T09:17:03;13.57;;;11.37;;
12155;SDS011;6141;49.092;8.516;2023-04-25T09:19:42;12.03;;;10.83;;
12155;SDS011;6141;49.092;8.516;2023-04-25T09:22:20;13.63;;;12.33;;
12155;SDS011;6141;49.092;8.516;2023-04-25T09:24:49;13.33;;;12.13;;
12155;SDS011;6141;49.092;8.516;2023-04-25T09:27:22;13.93;;;11.50;;
12155;SDS011;6141;49.092;8.516;2023-04-25T09:30:02;11.80;;;10.60;;
12155;SDS011;6141;49.092;8.516;2023-04-25T09:33:03;13.93;;;11.20;;
12155;SDS011;6141;49.092;8.516;2023-04-25T09:35:35;13.00;;;10.53;;
12155;SDS011;6141;49.092;8.516;2023-04-25T09:38:09;13.03;;;8.60;;
12155;SDS011;6141;49.092;8.516;2023-04-25T09:41:04;10.80;;;7.60;;
12155;SDS011;6141;49.092;8.516;2023-04-25T09:43:38;9.23;;;7.00;;
12155;SDS011;6141;49.092;8.516;2023-04-25T09:46:09;10.10;;;7.90;;
12155;SDS011;6141;49.092;8.516;2023-04-25T09:48:47;11.50;;;6.70;;
12155;SDS011;6141;49.092;8.516;2023-04-25T09:51:25;11.10;;;8.73;;
12155;SDS011;6141;49.092;8.516;2023-04-25T09:53:57;14.00;;;9.73;;
12155;SDS011;6141;49.092;8.516;2023-04-25T09:56:36;15.90;;;8.87;;
12155;SDS011;6141;49.092;8.516;2023-04-25T09:59:06;13.93;;;8.40;;
12155;SDS011;6141;49.092;8.516;2023-04-25T10:01:39;10.27;;;8.10;;
12155;SDS011;6141;49.092;8.516;2023-04-25T10:04:16;13.57;;;8.93;;
12155;SDS011;6141;49.092;8.516;2023-04-25T10:07:00;13.70;;;9.93;;
12155;SDS011;6141;49.092;8.516;2023-04-25T10:09:31;13.50;;;10.83;;
12155;SDS011;6141;49.092;8.516;2023-04-25T10:12:01;15.27;;;12.03;;
12155;SDS011;6141;49.092;8.516;2023-04-25T10:14:31;14.00;;;9.87;;
12155;SDS011;6141;49.092;8.516;2023-04-25T10:17:01;13.10;;;11.13;;
12155;SDS011;6141;49.092;8.516;2023-04-25T10:19:30;13.73;;;11.47;;
12155;SDS011;6141;49.092;8.516;2023-04-25T10:22:02;14.77;;;13.03;;
12155;SDS011;6141;49.092;8.516;2023-04-25T10:24:35;14.43;;;13.07;;
12155;SDS011;6141;49.092;8.516;2023-04-25T10:27:04;15.17;;;13.57;;
12155;SDS011;6141;49.092;8.516;2023-04-25T10:29:33;18.37;;;14.67;;
12155;SDS011;6141;49.092;8.516;2023-04-25T10:32:04;15.00;;;13.50;;
12155;SDS011;6141;49.092;8.516;2023-04-25T10:34:40;13.40;;;12.00;;
12155;SDS011;6141;49.092;8.516;2023-04-25T10:37:09;16.00;;;13.07;;
12155;SDS011;6141;49.092;8.516;2023-04-25T10:39:38;18.27;;;14.77;;
12155;SDS011;6141;49.092;8.516;2023-04-25T10:42:08;15.97;;;13.23;;
12155;SDS011;6141;49.092;8.516;2023-04-25T10:44:37;16.13;;;14.43;;
12155;SDS011;6141;49.092;8.516;2023-04-25T10:47:08;14.03;;;12.60;;
12155;SDS011;6141;49.092;8.516;2023-04-25T10:49:37;14.23;;;12.73;;
12155;SDS011;6141;49.092;8.516;2023-04-25T10:52:16;18.80;;;16.37;;
12155;SDS011;6141;49.092;8.516;2023-04-25T10:54:46;15.07;;;12.47;;
12155;SDS011;6141;49.092;8.516;2023-04-25T10:57:28;18.53;;;13.40;;
12155;SDS011;6141;49.092;8.516;2023-04-25T11:00:08;15.77;;;11.47;;
12155;SDS011;6141;49.092;8.516;2023-04-25T11:02:44;18.17;;;12.80;;
12155;SDS011;6141;49.092;8.516;2023-04-25T11:05:22;13.60;;;11.20;;
12155;SDS011;6141;49.092;8.516;2023-04-25T11:07:55;17.67;;;11.73;;
12155;SDS011;6141;49.092;8.516;2023-04-25T11:10:35;13.60;;;11.37;;
12155;SDS011;6141;49.092;8.516;2023-04-25T11:13:03;16.10;;;11.97;;
12155;SDS011;6141;49.092;8.516;2023-04-25T11:15:33;16.53;;;12.47;;
12155;SDS011;6141;49.092;8.516;2023-04-25T11:18:03;17.90;;;11.97;;
12155;SDS011;6141;49.092;8.516;2023-04-25T11:20:31;16.03;;;12.57;;
12155;SDS011;6141;49.092;8.516;2023-04-25T11:23:00;18.83;;;11.67;;
12155;SDS011;6141;49.092;8.516;2023-04-25T11:25:29;17.87;;;10.40;;
12155;SDS011;6141;49.092;8.516;2023-04-25T11:27:59;16.07;;;10.60;;
12155;SDS011;6141;49.092;8.516;2023-04-25T11:30:29;17.50;;;11.07;;
12155;SDS011;6141;49.092;8.516;2023-04-25T11:32:58;13.90;;;9.77;;
12155;SDS011;6141;49.092;8.516;2023-04-25T11:35:28;15.13;;;9.77;;
12155;SDS011;6141;49.092;8.516;2023-04-25T11:37:57;18.50;;;11.27;;
12155;SDS011;6141;49.092;8.516;2023-04-25T11:40:27;15.00;;;10.13;;
12155;SDS011;6141;49.092;8.516;2023-04-25T11:42:59;12.43;;;9.80;;
12155;SDS011;6141;49.092;8.516;2023-04-25T11:45:32;15.07;;;8.80;;
12155;SDS011;6141;49.092;8.516;2023-04-25T11:48:01;16.93;;;10.43;;
12155;SDS011;6141;49.092;8.516;2023-04-25T11:50:31;17.47;;;11.07;;
12155;SDS011;6141;49.092;8.516;2023-04-25T11:53:00;11.90;;;10.13;;
12155;SDS011;6141;49.092;8.516;2023-04-25T11:55:29;12.40;;;9.57;;
12155;SDS011;6141;49.092;8.516;2023-04-25T11:57:59;14.73;;;11.07;;
12155;SDS011;6141;49.092;8.516;2023-04-25T12:00:32;10.77;;;9.63;;
12155;SDS011;6141;49.092;8.516;2023-04-25T12:03:00;12.77;;;10.30;;
12155;SDS011;6141;49.092;8.516;2023-04-25T12:05:32;12.63;;;9.73;;
12155;SDS011;6141;49.092;8.516;2023-04-25T12:08:11;16.63;;;11.03;;
12155;SDS011;6141;49.092;8.516;2023-04-25T12:10:42;13.77;;;10.43;;
12155;SDS011;6141;49.092;8.516;2023-04-25T12:13:22;14.90;;;10.47;;
12155;SDS011;6141;49.092;8.516;2023-04-25T12:15:53;16.03;;;11.33;;
12155;SDS011;6141;49.092;8.516;2023-04-25T12:18:24;15.40;;;10.53;;
12155;SDS011;6141;49.092;8.516;2023-04-25T12:20:56;12.50;;;11.03;;
12155;SDS011;6141;49.092;8.516;2023-04-25T12:23:27;16.53;;;9.70;;
12155;SDS011;6141;49.092;8.516;2023-04-25T12:25:56;16.40;;;10.43;;
12155;SDS011;6141;49.092;8.516;2023-04-25T12:28:25;14.87;;;9.40;;
12155;SDS011;6141;49.092;8.516;2023-04-25T12:30:55;13.07;;;9.83;;
12155;SDS011;6141;49.092;8.516;2023-04-25T12:33:26;14.83;;;9.37;;
12155;SDS011;6141;49.092;8.516;2023-04-25T12:35:57;11.27;;;9.00;;
12155;SDS011;6141;49.092;8.516;2023-04-25T12:38:27;11.30;;;9.00;;
12155;SDS011;6141;49.092;8.516;2023-04-25T12:40:57;12.27;;;8.63;;
12155;SDS011;6141;49.092;8.516;2023-04-25T12:43:26;14.60;;;9.83;;
12155;SDS011;6141;49.092;8.516;2023-04-25T12:45:55;12.57;;;9.17;;
12155;SDS011;6141;49.092;8.516;2023-04-25T12:48:24;12.83;;;9.03;;
12155;SDS011;6141;49.092;8.516;2023-04-25T12:50:52;15.10;;;9.03;;
12155;SDS011;6141;49.092;8.516;2023-04-25T12:53:22;10.33;;;8.50;;
12155;SDS011;6141;49.092;8.516;2023-04-25T12:55:52;12.67;;;8.37;;
12155;SDS011;6141;49.092;8.516;2023-04-25T12:58:20;10.47;;;8.27;;
12155;SDS011;6141;49.092;8.516;2023-04-25T13:00:50;9.93;;;7.57;;
12155;SDS011;6141;49.092;8.516;2023-04-25T13:03:21;10.50;;;8.57;;
12155;SDS011;6141;49.092;8.516;2023-04-25T13:05:50;13.10;;;8.50;;
12155;SDS011;6141;49.092;8.516;2023-04-25T13:08:19;8.67;;;7.33;;
12155;SDS011;6141;49.092;8.516;2023-04-25T13:10:49;9.50;;;8.40;;
12155;SDS011;6141;49.092;8.516;2023-04-25T13:13:18;9.60;;;8.07;;
12155;SDS011;6141;49.092;8.516;2023-04-25T13:15:46;12.70;;;8.53;;
12155;SDS011;6141;49.092;8.516;2023-04-25T13:18:15;9.73;;;8.00;;
12155;SDS011;6141;49.092;8.516;2023-04-25T13:20:43;10.13;;;7.53;;
12155;SDS011;6141;49.092;8.516;2023-04-25T13:23:12;9.17;;;7.40;;
12155;SDS011;6141;49.092;8.516;2023-04-25T13:25:41;8.70;;;7.10;;
12155;SDS011;6141;49.092;8.516;2023-04-25T13:28:11;10.07;;;7.77;;
12155;SDS011;6141;49.092;8.516;2023-04-25T13:30:39;10.10;;;7.33;;
12155;SDS011;6141;49.092;8.516;2023-04-25T13:33:07;8.00;;;7.20;;
12155;SDS011;6141;49.092;8.516;2023-04-25T13:35:37;9.10;;;6.97;;
12155;SDS011;6141;49.092;8.516;2023-04-25T13:38:06;10.13;;;7.20;;
12155;SDS011;6141;49.092;8.516;2023-04-25T13:40:35;10.20;;;6.70;;
12155;SDS011;6141;49.092;8.516;2023-04-25T13:43:05;7.70;;;6.50;;
12155;SDS011;6141;49.092;8.516;2023-04-25T13:45:35;7.80;;;6.20;;
12155;SDS011;6141;49.092;8.516;2023-04-25T13:48:03;9.57;;;6.80;;
12155;SDS011;6141;49.092;8.516;2023-04-25T13:50:32;7.60;;;6.40;;
12155;SDS011;6141;49.092;8.516;2023-04-25T13:53:01;6.63;;;5.93;;
12155;SDS011;6141;49.092;8.516;2023-04-25T13:55:29;9.70;;;6.73;;
12155;SDS011;6141;49.092;8.516;2023-04-25T13:57:57;9.07;;;6.23;;
12155;SDS011;6141;49.092;8.516;2023-04-25T14:00:26;7.67;;;5.90;;
12155;SDS011;6141;49.092;8.516;2023-04-25T14:02:56;6.53;;;5.70;;
12155;SDS011;6141;49.092;8.516;2023-04-25T14:05:25;6.77;;;5.73;;
12155;SDS011;6141;49.092;8.516;2023-04-25T14:07:53;8.30;;;6.33;;
12155;SDS011;6141;49.092;8.516;2023-04-25T14:10:22;9.17;;;5.83;;
12155;SDS011;6141;49.092;8.516;2023-04-25T14:12:50;6.60;;;5.23;;
12155;SDS011;6141;49.092;8.516;2023-04-25T14:15:18;7.93;;;6.20;;
12155;SDS011;6141;49.092;8.516;2023-04-25T14:17:47;6.43;;;4.93;;
12155;SDS011;6141;49.092;8.516;2023-04-25T14:20:18;11.20;;;5.70;;
12155;SDS011;6141;49.092;8.516;2023-04-25T14:22:47;7.53;;;5.23;;
12155;SDS011;6141;49.092;8.516;2023-04-25T14:25:16;6.30;;;5.30;;
12155;SDS011;6141;49.092;8.516;2023-04-25T14:27:45;7.47;;;5.50;;
12155;SDS011;6141;49.092;8.516;2023-04-25T14:30:16;6.63;;;4.90;;
12155;SDS011;6141;49.092;8.516;2023-04-25T14:32:46;5.77;;;5.27;;
12155;SDS011;6141;49.092;8.516;2023-04-25T14:35:15;6.33;;;4.83;;
12155;SDS011;6141;49.092;8.516;2023-04-25T14:37:45;9.30;;;5.70;;
12155;SDS011;6141;49.092;8.516;2023-04-25T14:40:14;8.27;;;5.97;;
12155;SDS011;6141;49.092;8.516;2023-04-25T14:42:43;6.77;;;5.13;;
12155;SDS011;6141;49.092;8.516;2023-04-25T14:45:11;5.70;;;4.87;;
12155;SDS011;6141;49.092;8.516;2023-04-25T14:47:40;7.87;;;6.00;;
12155;SDS011;6141;49.092;8.516;2023-04-25T14:50:10;6.00;;;4.57;;
12155;SDS011;6141;49.092;8.516;2023-04-25T14:52:38;7.47;;;5.10;;
12155;SDS011;6141;49.092;8.516;2023-04-25T14:55:08;5.87;;;4.70;;
12155;SDS011;6141;49.092;8.516;2023-04-25T14:57:37;6.83;;;4.83;;
12155;SDS011;6141;49.092;8.516;2023-04-25T15:00:06;7.33;;;4.50;;
12155;SDS011;6141;49.092;8.516;2023-04-25T15:02:36;7.27;;;5.03;;
12155;SDS011;6141;49.092;8.516;2023-04-25T15:05:06;5.40;;;4.63;;
12155;SDS011;6141;49.092;8.516;2023-04-25T15:07:36;7.33;;;4.50;;
12155;SDS011;6141;49.092;8.516;2023-04-25T15:10:06;4.93;;;4.33;;
12155;SDS011;6141;49.092;8.516;2023-04-25T15:12:40;9.80;;;5.17;;
12155;SDS011;6141;49.092;8.516;2023-04-25T15:15:09;7.37;;;5.03;;
12155;SDS011;6141;49.092;8.516;2023-04-25T15:17:50;7.27;;;4.83;;
12155;SDS011;6141;49.092;8.516;2023-04-25T15:20:23;6.03;;;4.33;;
12155;SDS011;6141;49.092;8.516;2023-04-25T15:22:53;6.73;;;4.40;;
12155;SDS011;6141;49.092;8.516;2023-04-25T15:25:24;5.70;;;4.60;;
12155;SDS011;6141;49.092;8.516;2023-04-25T15:27:55;5.57;;;4.67;;